Time;durP1;ratioP1;P1;durP2;ratioP2;P2;SDS_P1;SDS_P2;PMS_P1;PMS_P2;Temp;Humidity;BMP_temperature;BMP_pressure;BME280_temperature;BME280_humidity;BME280_pressure;Samples;Min_cycle;Max_cycle;Signal;HPM_P1;HPM_P2
2023/03/05 00:00:06;;;;;;;54.17;20.50;;;11.00;48.90;;;;;;7528798;23;20018;-72
2023/03/05 00:03:14;;;;;;;48.75;18.77;;;10.90;48.90;;;;;;7529015;23;20019;-73
2023/03/05 00:06:16;;;;;;;59.67;19.52;;;10.90;48.90;;;;;;7527674;23;20342;-73
2023/03/05 00:09:17;;;;;;;56.35;19.33;;;10.90;48.90;;;;;;7528226;23;20101;-72
2023/03/05 00:12:18;;;;;;;47.13;19.33;;;10.90;49.00;;;;;;7529056;23;20033;-73
2023/03/05 00:15:19;;;;;;;56.03;20.95;;;10.80;49.00;;;;;;7528382;23;20011;-73
2023/03/05 00:18:20;;;;;;;52.63;19.23;;;10.80;49.10;;;;;;7528892;23;20144;-73
2023/03/05 00:21:21;;;;;;;60.22;18.52;;;10.80;49.10;;;;;;7529242;23;20041;-73
2023/03/05 00:24:22;;;;;;;49.35;17.27;;;10.80;49.30;;;;;;7530274;23;20055;-73
2023/03/05 00:27:23;;;;;;;50.35;20.55;;;10.70;49.30;;;;;;7504839;23;20007;-72
2023/03/05 00:30:24;;;;;;;48.28;17.83;;;10.70;49.50;;;;;;7527068;23;20090;-73
2023/03/05 00:33:26;;;;;;;47.20;18.13;;;10.60;49.60;;;;;;7526703;23;20015;-72
2023/03/05 00:36:27;;;;;;;54.05;17.42;;;10.50;49.80;;;;;;7527882;23;20081;-71
2023/03/05 00:39:29;;;;;;;45.97;17.38;;;10.50;49.90;;;;;;7527372;23;20328;-72
2023/03/05 00:42:32;;;;;;;52.95;18.23;;;10.40;50.00;;;;;;7509206;23;20066;-71
2023/03/05 00:45:36;;;;;;;47.95;17.27;;;10.40;50.20;;;;;;7538604;23;20329;-71
2023/03/05 00:48:37;;;;;;;56.22;18.08;;;10.30;50.50;;;;;;7540557;23;20370;-72
2023/03/05 00:51:38;;;;;;;47.80;17.75;;;10.20;50.70;;;;;;7537785;23;20042;-72
2023/03/05 00:54:39;;;;;;;48.80;17.13;;;10.20;50.80;;;;;;7528161;23;20106;-72
2023/03/05 00:57:40;;;;;;;51.13;19.38;;;10.20;50.90;;;;;;7528736;23;20282;-72
2023/03/05 01:00:41;;;;;;;49.00;18.05;;;10.20;50.80;;;;;;7526533;23;20632;-73
2023/03/05 01:03:42;;;;;;;45.47;19.05;;;10.10;50.90;;;;;;7526287;23;20632;-73
2023/03/05 01:06:44;;;;;;;60.17;18.33;;;10.10;50.90;;;;;;7528501;23;20014;-71
2023/03/05 01:09:47;;;;;;;48.58;18.85;;;10.10;51.00;;;;;;7527770;23;20443;-72
2023/03/05 01:12:48;;;;;;;52.88;19.25;;;10.00;51.10;;;;;;7526508;23;20077;-72
2023/03/05 01:15:49;;;;;;;49.10;17.13;;;10.00;51.20;;;;;;7528144;23;20007;-74
2023/03/05 01:18:52;;;;;;;47.72;17.20;;;9.90;51.30;;;;;;7526218;23;20102;-72
2023/03/05 01:21:53;;;;;;;42.45;16.27;;;9.90;51.30;;;;;;7503068;23;20020;-73
2023/03/05 01:24:54;;;;;;;43.25;16.27;;;9.90;51.40;;;;;;7526579;23;20108;-73
2023/03/05 01:27:56;;;;;;;40.50;15.52;;;10.00;51.50;;;;;;7527723;23;20542;-73
2023/03/05 01:30:57;;;;;;;42.85;15.75;;;10.00;51.60;;;;;;7502350;23;20070;-71
2023/03/05 01:33:59;;;;;;;42.75;15.43;;;10.00;51.50;;;;;;7527713;23;20421;-73
2023/03/05 01:36:59;;;;;;;43.20;14.57;;;10.00;51.40;;;;;;7525806;23;20086;-71
2023/03/05 01:40:00;;;;;;;35.92;13.43;;;9.90;51.30;;;;;;7527597;23;20013;-72
2023/03/05 01:43:24;;;;;;;32.38;13.75;;;9.90;51.30;;;;;;7502181;23;20003;-72
2023/03/05 01:46:27;;;;;;;36.38;14.55;;;9.90;51.30;;;;;;7526245;23;20338;-71
2023/03/05 01:49:32;;;;;;;55.22;16.92;;;9.90;51.30;;;;;;7527507;23;20021;-72
2023/03/05 01:52:36;;;;;;;43.97;16.23;;;9.90;51.30;;;;;;7528032;23;20151;-73
2023/03/05 01:55:37;;;;;;;42.58;15.98;;;9.90;51.40;;;;;;7526709;23;20014;-73
2023/03/05 01:58:38;;;;;;;40.47;15.32;;;9.80;51.40;;;;;;7502782;23;20500;-72
2023/03/05 02:01:43;;;;;;;40.70;16.02;;;9.80;51.60;;;;;;7502609;23;20414;-73
2023/03/05 02:04:53;;;;;;;40.65;15.10;;;9.70;51.70;;;;;;7526955;23;20007;-72
2023/03/05 02:08:00;;;;;;;38.88;14.55;;;9.70;51.80;;;;;;7502908;23;20133;-72
2023/03/05 02:11:02;;;;;;;52.08;13.85;;;9.70;51.90;;;;;;7526980;23;20085;-72
2023/03/05 02:14:04;;;;;;;38.35;12.63;;;9.70;52.00;;;;;;7531659;23;20110;-72
2023/03/05 02:17:06;;;;;;;39.13;14.48;;;9.60;51.90;;;;;;7549393;23;20136;-73
2023/03/05 02:20:20;;;;;;;38.40;14.10;;;9.60;51.80;;;;;;7530903;23;20022;-73
2023/03/05 02:23:26;;;;;;;35.67;13.65;;;9.50;51.80;;;;;;7526789;23;20042;-72
2023/03/05 02:26:27;;;;;;;34.53;12.57;;;9.40;51.80;;;;;;7528364;23;20090;-73
2023/03/05 02:29:29;;;;;;;44.03;14.07;;;9.40;52.00;;;;;;7502574;23;20019;-71
2023/03/05 02:32:30;;;;;;;41.28;14.45;;;9.10;51.90;;;;;;7529284;23;20050;-71
2023/03/05 02:35:31;;;;;;;41.15;14.68;;;9.20;52.00;;;;;;7507544;23;20023;-72
2023/03/05 02:38:32;;;;;;;31.00;11.85;;;9.10;52.00;;;;;;7503152;23;20054;-73
2023/03/05 02:41:33;;;;;;;43.88;14.32;;;9.10;52.10;;;;;;7531099;23;20003;-73
2023/03/05 02:44:34;;;;;;;40.92;12.15;;;9.00;52.10;;;;;;7525991;23;20369;-73
2023/03/05 02:47:36;;;;;;;40.85;12.02;;;9.00;52.10;;;;;;7527551;23;20014;-72
2023/03/05 02:50:38;;;;;;;42.97;13.23;;;9.00;52.10;;;;;;7526006;23;20011;-71
2023/03/05 02:53:39;;;;;;;35.58;11.77;;;8.90;52.10;;;;;;7525766;23;20106;-72
2023/03/05 02:56:42;;;;;;;38.92;12.13;;;9.00;52.00;;;;;;7527498;23;20013;-72
2023/03/05 02:59:44;;;;;;;27.40;11.57;;;9.00;51.90;;;;;;7535931;23;20065;-71
2023/03/05 03:02:45;;;;;;;30.38;12.38;;;9.00;51.80;;;;;;7549939;23;20011;-72
2023/03/05 03:05:46;;;;;;;35.80;13.00;;;9.00;51.60;;;;;;7549828;23;20437;-72
2023/03/05 03:08:46;;;;;;;30.73;11.32;;;9.00;51.60;;;;;;7527275;23;20441;-73
2023/03/05 03:11:48;;;;;;;39.08;12.15;;;8.90;51.60;;;;;;7527385;23;20059;-72
2023/03/05 03:14:49;;;;;;;34.97;11.73;;;8.90;51.60;;;;;;7527637;23;20047;-71
2023/03/05 03:17:50;;;;;;;43.03;12.13;;;8.90;51.50;;;;;;7549449;23;20385;-74
2023/03/05 03:20:51;;;;;;;28.88;10.57;;;8.90;51.50;;;;;;7549312;23;20018;-72
2023/03/05 03:23:52;;;;;;;32.63;11.15;;;8.90;51.50;;;;;;7527882;23;20013;-72
2023/03/05 03:26:53;;;;;;;41.80;10.85;;;8.80;51.40;;;;;;7529283;23;20014;-72
2023/03/05 03:29:54;;;;;;;42.35;12.43;;;8.80;51.50;;;;;;7551784;23;20010;-72
2023/03/05 03:32:55;;;;;;;39.78;11.43;;;8.80;51.40;;;;;;7552016;23;20021;-71
2023/03/05 03:35:56;;;;;;;38.10;12.18;;;8.80;51.40;;;;;;7540129;23;20072;-71
2023/03/05 03:38:57;;;;;;;32.00;11.32;;;8.70;51.30;;;;;;7537525;23;20042;-73
2023/03/05 03:41:58;;;;;;;34.90;13.25;;;8.70;51.40;;;;;;7528932;23;20078;-72
2023/03/05 03:45:01;;;;;;;41.47;12.02;;;8.70;51.40;;;;;;7552186;23;20011;-72
2023/03/05 03:48:01;;;;;;;44.97;12.95;;;8.70;51.50;;;;;;7527338;23;20041;-71
2023/03/05 03:51:06;;;;;;;38.42;13.85;;;8.60;51.50;;;;;;7529439;23;20015;-72
2023/03/05 03:54:07;;;;;;;43.72;12.05;;;8.60;51.60;;;;;;7552032;23;20365;-72
2023/03/05 03:57:08;;;;;;;45.85;12.90;;;8.70;51.70;;;;;;7529650;23;20074;-71
2023/03/05 04:00:10;;;;;;;45.33;12.95;;;8.60;51.70;;;;;;7551671;23;20011;-73
2023/03/05 04:03:14;;;;;;;32.92;11.82;;;8.50;51.70;;;;;;7529131;23;20010;-72
2023/03/05 04:06:14;;;;;;;38.17;13.65;;;8.70;52.00;;;;;;7551726;23;20029;-71
2023/03/05 04:09:15;;;;;;;47.13;12.98;;;8.50;51.90;;;;;;7529380;23;20018;-72
2023/03/05 04:12:17;;;;;;;43.78;13.73;;;7.70;51.70;;;;;;7527299;23;20053;-71
2023/03/05 04:15:18;;;;;;;37.70;13.38;;;8.40;52.10;;;;;;7551509;23;20512;-73
2023/03/05 04:18:19;;;;;;;38.83;12.40;;;8.40;52.10;;;;;;7528889;23;20014;-72
2023/03/05 04:21:20;;;;;;;38.78;13.73;;;8.40;52.10;;;;;;7551556;23;20006;-73
2023/03/05 04:24:21;;;;;;;42.00;13.13;;;8.30;52.10;;;;;;7527473;23;20093;-72
2023/03/05 04:27:22;;;;;;;34.28;12.10;;;8.30;52.10;;;;;;7551481;23;20015;-73
2023/03/05 04:30:23;;;;;;;44.72;14.85;;;8.30;52.10;;;;;;7529014;23;20003;-71
2023/03/05 04:33:25;;;;;;;36.97;12.02;;;8.30;52.30;;;;;;7529110;23;20412;-73
2023/03/05 04:36:26;;;;;;;41.00;13.88;;;8.30;52.30;;;;;;7528924;23;20055;-73
2023/03/05 04:39:27;;;;;;;40.65;12.43;;;8.30;52.20;;;;;;7529086;23;20026;-72
2023/03/05 04:42:28;;;;;;;42.85;11.85;;;8.30;52.10;;;;;;7531623;23;20386;-73
2023/03/05 04:45:29;;;;;;;46.33;14.23;;;8.40;52.10;;;;;;7554746;23;20023;-72
2023/03/05 04:48:30;;;;;;;33.88;13.10;;;8.40;52.10;;;;;;7569270;23;20030;-72
2023/03/05 04:51:31;;;;;;;44.05;12.07;;;8.40;52.10;;;;;;7553237;23;20429;-72
2023/03/05 04:54:32;;;;;;;32.53;13.02;;;8.30;52.00;;;;;;7551871;23;20079;-71
2023/03/05 04:57:34;;;;;;;37.47;12.63;;;8.40;52.10;;;;;;7530717;23;20013;-72
2023/03/05 05:00:35;;;;;;;37.20;13.07;;;8.40;52.10;;;;;;7530952;23;20350;-72
2023/03/05 05:03:36;;;;;;;40.83;13.88;;;8.30;52.10;;;;;;7529809;23;20022;-72
2023/03/05 05:06:37;;;;;;;30.27;11.68;;;8.30;52.00;;;;;;7528229;23;20082;-74
2023/03/05 05:09:40;;;;;;;36.67;13.20;;;8.30;52.10;;;;;;7503067;23;20113;-72
2023/03/05 05:12:41;;;;;;;35.28;12.32;;;8.30;52.10;;;;;;7528741;23;20006;-71
2023/03/05 05:15:42;;;;;;;38.65;12.10;;;8.30;52.20;;;;;;7526766;23;20011;-74
2023/03/05 05:18:43;;;;;;;34.28;13.98;;;8.30;52.30;;;;;;7502503;23;20013;-71
2023/03/05 05:21:44;;;;;;;34.22;12.32;;;8.30;52.30;;;;;;7528398;23;20007;-73
2023/03/05 05:24:45;;;;;;;52.17;14.48;;;8.30;52.30;;;;;;7528599;23;20047;-70
2023/03/05 05:27:46;;;;;;;38.15;13.50;;;8.30;52.30;;;;;;7528093;23;20007;-73
2023/03/05 05:30:47;;;;;;;38.00;13.02;;;8.30;52.20;;;;;;7502657;23;20017;-72
2023/03/05 05:33:49;;;;;;;47.20;13.07;;;8.30;52.20;;;;;;7527827;23;20015;-74
2023/03/05 05:36:50;;;;;;;52.17;15.68;;;8.20;52.20;;;;;;7527987;23;20065;-74
2023/03/05 05:39:52;;;;;;;56.50;15.57;;;8.20;52.40;;;;;;7526004;23;20365;-72
2023/03/05 05:42:53;;;;;;;42.80;13.90;;;8.10;52.50;;;;;;7502580;23;20055;-71
2023/03/05 05:45:57;;;;;;;28.92;12.82;;;8.10;52.60;;;;;;7526697;23;20094;-72
2023/03/05 05:48:58;;;;;;;45.13;13.57;;;8.10;52.60;;;;;;7525842;23;20397;-73
2023/03/05 05:52:00;;;;;;;39.75;12.98;;;8.10;52.70;;;;;;7527890;23;20086;-72
2023/03/05 05:55:00;;;;;;;46.75;13.60;;;8.00;52.90;;;;;;7528075;23;20334;-73
2023/03/05 05:58:02;;;;;;;41.33;13.98;;;8.00;53.00;;;;;;7527357;23;20029;-73
2023/03/05 06:01:15;;;;;;;40.95;14.60;;;8.00;53.10;;;;;;7526209;23;20010;-72
2023/03/05 06:04:16;;;;;;;42.28;11.88;;;8.00;53.10;;;;;;7528160;23;20460;-72
2023/03/05 06:07:17;;;;;;;46.15;14.32;;;7.90;53.10;;;;;;7526102;23;20010;-73
2023/03/05 06:10:19;;;;;;;42.00;13.85;;;7.90;53.10;;;;;;7526097;23;20059;-73
2023/03/05 06:13:20;;;;;;;60.42;14.80;;;7.90;53.20;;;;;;7503222;23;20010;-74
2023/03/05 06:16:23;;;;;;;36.70;13.25;;;7.90;53.20;;;;;;7531089;23;20006;-71
2023/03/05 06:19:24;;;;;;;44.22;14.30;;;7.80;53.20;;;;;;7535936;23;20010;-72
2023/03/05 06:22:25;;;;;;;44.78;15.20;;;7.80;53.30;;;;;;7538327;23;20101;-73
2023/03/05 06:25:26;;;;;;;50.58;17.75;;;7.80;53.40;;;;;;7533897;23;20015;-73
2023/03/05 06:28:28;;;;;;;46.95;14.18;;;7.40;53.30;;;;;;7529056;23;20097;-71
2023/03/05 06:31:30;;;;;;;44.70;14.80;;;7.80;53.50;;;;;;7530117;23;20011;-72
2023/03/05 06:34:31;;;;;;;37.97;14.55;;;7.80;53.50;;;;;;7530167;23;20018;-73
2023/03/05 06:37:35;;;;;;;41.25;14.05;;;7.80;53.50;;;;;;7533323;23;20011;-72
2023/03/05 06:40:38;;;;;;;49.97;15.45;;;7.80;53.60;;;;;;7532486;23;20066;-72
2023/03/05 06:43:42;;;;;;;42.40;14.30;;;7.80;53.60;;;;;;7527539;23;20089;-72
2023/03/05 06:46:43;;;;;;;43.17;14.63;;;7.80;53.60;;;;;;7528656;23;20091;-71
2023/03/05 06:49:44;;;;;;;59.97;15.82;;;7.80;53.60;;;;;;7503128;23;20385;-73
2023/03/05 06:52:48;;;;;;;45.45;15.85;;;7.80;53.60;;;;;;7528794;23;20054;-72
2023/03/05 06:55:50;;;;;;;39.90;14.27;;;7.80;53.60;;;;;;7525914;23;20017;-74
2023/03/05 06:58:52;;;;;;;55.28;16.05;;;8.00;53.70;;;;;;7527184;23;20007;-73
2023/03/05 07:01:53;;;;;;;37.35;13.55;;;7.90;53.60;;;;;;7529196;23;20003;-74
2023/03/05 07:04:54;;;;;;;47.13;15.27;;;8.00;53.50;;;;;;7529260;23;20061;-72
2023/03/05 07:07:55;;;;;;;55.50;16.90;;;8.00;53.50;;;;;;7531548;23;20011;-72
2023/03/05 07:10:57;;;;;;;50.22;14.65;;;7.90;53.40;;;;;;7550269;23;20457;-72
2023/03/05 07:13:59;;;;;;;51.88;15.68;;;8.00;53.40;;;;;;7536332;23;20018;-72
2023/03/05 07:17:00;;;;;;;46.30;13.73;;;7.90;53.30;;;;;;7533726;23;20019;-73
2023/03/05 07:20:02;;;;;;;39.22;14.43;;;7.90;53.40;;;;;;7531811;23;20045;-75
2023/03/05 07:23:04;;;;;;;40.60;15.55;;;7.90;53.30;;;;;;7531412;23;20007;-71
2023/03/05 07:26:06;;;;;;;38.95;13.77;;;7.90;53.30;;;;;;7552800;23;20078;-72
2023/03/05 07:29:07;;;;;;;48.75;14.55;;;7.90;53.30;;;;;;7531268;23;20010;-73
2023/03/05 07:32:08;;;;;;;43.25;14.43;;;7.90;53.90;;;;;;7530882;23;20011;-71
2023/03/05 07:35:09;;;;;;;41.75;14.80;;;7.90;53.40;;;;;;7530272;23;20018;-72
2023/03/05 07:38:10;;;;;;;52.42;15.23;;;7.90;53.40;;;;;;7530085;23;20007;-73
2023/03/05 07:41:18;;;;;;;56.42;18.27;;;8.00;53.40;;;;;;7531109;23;20101;-72
2023/03/05 07:44:19;;;;;;;50.90;15.15;;;8.00;53.40;;;;;;7553346;23;20437;-71
2023/03/05 07:47:22;;;;;;;48.55;16.02;;;8.00;53.40;;;;;;7527755;23;20452;-71
2023/03/05 07:50:23;;;;;;;48.67;15.30;;;8.00;53.60;;;;;;7529902;23;20007;-71
2023/03/05 07:53:24;;;;;;;45.80;15.05;;;8.10;53.30;;;;;;7530281;23;20084;-73
2023/03/05 07:56:31;;;;;;;44.08;15.52;;;8.10;53.10;;;;;;7530659;23;20429;-72
2023/03/05 07:59:33;;;;;;;46.78;13.77;;;8.20;53.10;;;;;;7529476;23;20026;-72
2023/03/05 08:02:34;;;;;;;42.08;13.75;;;8.20;53.00;;;;;;7530489;23;20102;-73
2023/03/05 08:05:38;;;;;;;49.38;15.85;;;8.30;53.00;;;;;;7530896;23;20018;-72
2023/03/05 08:08:40;;;;;;;55.22;15.57;;;8.40;52.90;;;;;;7528415;23;20113;-72
2023/03/05 08:11:41;;;;;;;47.17;15.43;;;8.40;52.70;;;;;;7505690;23;20106;-73
2023/03/05 08:14:42;;;;;;;49.47;14.00;;;8.60;52.60;;;;;;7529401;23;20007;-72
2023/03/05 08:17:43;;;;;;;40.97;13.98;;;8.70;52.50;;;;;;7529742;23;20010;-72
2023/03/05 08:20:44;;;;;;;43.00;14.15;;;8.70;52.30;;;;;;7527625;23;20109;-72
2023/03/05 08:23:46;;;;;;;44.88;14.85;;;8.90;52.30;;;;;;7528633;23;20007;-71
2023/03/05 08:26:47;;;;;;;49.75;16.17;;;9.00;52.10;;;;;;7532051;23;20062;-73
2023/03/05 08:29:48;;;;;;;57.70;16.02;;;9.10;51.90;;;;;;7528381;23;20263;-73
2023/03/05 08:32:49;;;;;;;46.78;16.23;;;9.10;51.70;;;;;;7527243;23;20516;-72
2023/03/05 08:35:50;;;;;;;39.53;14.60;;;9.20;51.60;;;;;;7527104;23;20014;-73
2023/03/05 08:38:51;;;;;;;71.38;17.23;;;9.40;51.50;;;;;;7529138;23;20007;-72
2023/03/05 08:41:52;;;;;;;184.95;23.75;;;9.50;51.30;;;;;;7528891;23;20074;-71
2023/03/05 08:44:53;;;;;;;53.53;17.77;;;9.70;51.00;;;;;;7527419;23;20044;-72
2023/03/05 08:47:56;;;;;;;47.83;17.05;;;9.80;50.80;;;;;;7528063;23;20022;-72
2023/03/05 08:51:03;;;;;;;53.88;17.38;;;9.90;50.80;;;;;;7529445;23;20066;-73
2023/03/05 08:54:06;;;;;;;55.38;18.70;;;10.00;50.70;;;;;;7527478;23;20345;-71
2023/03/05 08:57:07;;;;;;;45.28;15.75;;;10.10;50.70;;;;;;7526690;23;20059;-72
2023/03/05 09:00:09;;;;;;;56.85;17.73;;;10.20;50.70;;;;;;7517978;23;20017;-72
2023/03/05 09:03:10;;;;;;;54.67;17.85;;;10.20;50.60;;;;;;7528249;23;20008;-71
2023/03/05 09:06:11;;;;;;;44.55;19.17;;;10.30;50.40;;;;;;7528855;23;20018;-71
2023/03/05 09:09:12;;;;;;;59.22;17.38;;;10.30;50.40;;;;;;7529148;23;20034;-72
2023/03/05 09:12:14;;;;;;;56.03;18.73;;;10.40;50.50;;;;;;7527780;23;20336;-72
2023/03/05 09:15:15;;;;;;;53.95;19.95;;;10.50;50.60;;;;;;7531820;23;20021;-72
2023/03/05 09:18:16;;;;;;;50.13;17.35;;;10.60;50.60;;;;;;7533877;23;20003;-72
2023/03/05 09:21:17;;;;;;;46.40;16.85;;;10.70;50.50;;;;;;7529885;23;20020;-71
2023/03/05 09:24:18;;;;;;;48.38;18.33;;;10.90;50.40;;;;;;7529012;23;20106;-72
2023/03/05 09:27:20;;;;;;;51.95;17.08;;;11.00;50.20;;;;;;7529016;23;20011;-73
2023/03/05 09:30:21;;;;;;;53.25;18.05;;;11.10;50.00;;;;;;7528310;23;20430;-72
2023/03/05 09:33:22;;;;;;;46.65;17.83;;;11.20;49.80;;;;;;7531532;23;20497;-71
2023/03/05 09:36:26;;;;;;;53.28;18.08;;;11.30;49.60;;;;;;7565524;23;20014;-71
2023/03/05 09:39:27;;;;;;;56.58;18.13;;;11.40;49.20;;;;;;7556282;23;20065;-72
2023/03/05 09:42:44;;;;;;;53.72;18.05;;;11.40;49.00;;;;;;7527099;23;20074;-72
2023/03/05 09:46:04;;;;;;;56.97;18.95;;;11.40;48.70;;;;;;7526297;23;20377;-71
2023/03/05 09:49:28;;;;;;;59.05;17.98;;;11.30;48.60;;;;;;7527411;23;20041;-72
2023/03/05 09:52:38;;;;;;;53.00;18.17;;;11.40;48.60;;;;;;7528453;23;20015;-71
2023/03/05 09:55:44;;;;;;;61.65;19.63;;;11.40;48.40;;;;;;7550389;23;20305;-72
2023/03/05 09:59:02;;;;;;;49.00;18.17;;;11.60;48.30;;;;;;7527289;23;20201;-72
2023/03/05 10:02:41;;;;;;;52.70;18.52;;;11.90;47.90;;;;;;7525792;23;20038;-73
2023/03/05 10:06:01;;;;;;;54.70;16.83;;;12.10;47.60;;;;;;7527688;23;20137;-72
2023/03/05 10:09:24;;;;;;;54.75;18.10;;;12.20;47.00;;;;;;7525772;23;20022;-71
2023/03/05 10:12:41;;;;;;;52.92;19.85;;;12.20;46.70;;;;;;7527861;23;20014;-73
2023/03/05 10:15:50;;;;;;;51.65;17.75;;;12.10;46.80;;;;;;7526346;23;20007;-72
2023/03/05 10:19:14;;;;;;;50.90;18.02;;;12.00;46.70;;;;;;7526208;23;20006;-72
2023/03/05 10:22:27;;;;;;;51.67;18.55;;;11.90;46.90;;;;;;7502026;23;20472;-73
2023/03/05 10:26:07;;;;;;;53.88;19.27;;;11.70;47.00;;;;;;7528345;23;20070;-72
2023/03/05 10:29:41;;;;;;;49.53;17.88;;;11.40;47.20;;;;;;7383715;24;20467;-72
2023/03/05 10:32:55;;;;;;;53.38;18.42;;;11.40;47.40;;;;;;7373403;24;20040;-73
2023/03/05 10:35:56;;;;;;;55.17;18.48;;;11.40;47.70;;;;;;7383822;24;20115;-72
2023/03/05 10:39:18;;;;;;;53.90;19.83;;;11.40;48.40;;;;;;7383493;24;20447;-72
2023/03/05 10:43:02;;;;;;;52.10;18.90;;;11.60;47.80;;;;;;7383848;24;20051;-71
2023/03/05 10:46:04;;;;;;;50.33;17.98;;;11.90;47.40;;;;;;7284036;24;20021;-72
2023/03/05 10:49:18;;;;;;;50.80;18.27;;;12.20;47.00;;;;;;7283450;24;20026;-73
2023/03/05 10:52:28;;;;;;;55.28;17.92;;;12.30;46.50;;;;;;7283907;24;20025;-73
2023/03/05 10:55:29;;;;;;;53.08;18.88;;;12.40;46.30;;;;;;7283800;24;20074;-72
2023/03/05 10:58:31;;;;;;;59.60;20.10;;;12.40;46.10;;;;;;7283660;24;20014;-71
2023/03/05 11:01:35;;;;;;;53.08;17.85;;;12.50;46.20;;;;;;7284083;24;20021;-73
2023/03/05 11:04:39;;;;;;;55.33;17.98;;;12.70;46.20;;;;;;7365962;24;20103;-73
2023/03/05 11:07:41;;;;;;;56.00;17.52;;;13.00;45.90;;;;;;7420436;24;20012;-72
2023/03/05 11:10:42;;;;;;;61.97;21.52;;;13.10;45.60;;;;;;7420521;23;20130;-72
2023/03/05 11:13:50;;;;;;;58.17;19.35;;;13.30;45.40;;;;;;7397115;24;20008;-72
2023/03/05 11:16:51;;;;;;;58.80;19.85;;;13.50;45.20;;;;;;7397033;24;20016;-73
2023/03/05 11:19:54;;;;;;;50.83;20.30;;;13.70;44.80;;;;;;7479789;23;20054;-73
2023/03/05 11:23:16;;;;;;;51.90;20.05;;;13.80;44.60;;;;;;7503433;23;20010;-72
2023/03/05 11:26:22;;;;;;;58.45;18.95;;;14.00;44.40;;;;;;7528341;23;20029;-73
2023/03/05 11:29:29;;;;;;;44.33;17.13;;;14.30;44.10;;;;;;7529451;23;20010;-73
2023/03/05 11:32:31;;;;;;;58.38;20.10;;;14.60;43.50;;;;;;7529288;23;20021;-74
2023/03/05 11:35:34;;;;;;;44.28;17.65;;;14.90;43.00;;;;;;7529600;23;20022;-73
2023/03/05 11:38:51;;;;;;;52.28;18.70;;;15.20;42.70;;;;;;7503689;23;20027;-73
2023/03/05 11:42:00;;;;;;;58.88;22.13;;;15.50;42.00;;;;;;7503902;23;20018;-71
2023/03/05 11:45:03;;;;;;;54.13;18.85;;;15.50;41.20;;;;;;7528994;23;20014;-72
2023/03/05 11:48:07;;;;;;;54.25;19.25;;;15.60;41.00;;;;;;7529458;23;20007;-72
2023/03/05 11:51:24;;;;;;;53.63;18.58;;;15.90;40.90;;;;;;7528101;23;20018;-74
2023/03/05 11:54:35;;;;;;;50.08;19.42;;;16.00;40.10;;;;;;7529991;23;20011;-72
2023/03/05 11:58:04;;;;;;;53.35;20.65;;;16.30;39.80;;;;;;7530127;23;20492;-73
2023/03/05 12:01:17;;;;;;;58.08;19.02;;;16.60;39.20;;;;;;7497411;23;20358;-73
2023/03/05 12:04:19;;;;;;;49.65;18.70;;;16.90;38.30;;;;;;7513633;23;20060;-73
2023/03/05 12:07:35;;;;;;;51.05;19.20;;;17.20;37.90;;;;;;7500990;23;20096;-72
2023/03/05 12:10:36;;;;;;;50.25;18.77;;;17.60;37.10;;;;;;7478685;23;20027;-72
2023/03/05 12:13:53;;;;;;;47.05;17.73;;;17.80;36.00;;;;;;7499998;23;20030;-71
2023/03/05 12:16:55;;;;;;;48.80;17.67;;;18.00;35.80;;;;;;7495303;23;20095;-73
2023/03/05 12:20:17;;;;;;;51.00;18.83;;;18.40;35.50;;;;;;7493444;23;20259;-71
2023/03/05 12:23:20;;;;;;;46.67;19.48;;;18.70;34.90;;;;;;7469070;23;20011;-73
2023/03/05 12:27:03;;;;;;;54.70;18.55;;;19.00;34.40;;;;;;7468405;23;20041;-73
2023/03/05 12:30:04;;;;;;;48.38;17.38;;;19.30;33.60;;;;;;7493431;23;20425;-71
2023/03/05 12:33:25;;;;;;;50.78;17.90;;;19.60;33.10;;;;;;7468265;23;20011;-74
2023/03/05 12:36:33;;;;;;;57.40;26.42;;;19.80;32.70;;;;;;7492999;23;20083;-72
2023/03/05 12:39:43;;;;;;;48.45;16.33;;;20.30;32.00;;;;;;7491957;23;20106;-73
2023/03/05 12:43:04;;;;;;;44.38;17.52;;;20.50;31.50;;;;;;7494230;23;20030;-72
2023/03/05 12:46:27;;;;;;;49.67;18.20;;;20.60;31.10;;;;;;7467952;23;20027;-73
2023/03/05 12:49:34;;;;;;;43.22;17.63;;;20.80;30.80;;;;;;7491368;23;20609;-73
2023/03/05 12:52:38;;;;;;;40.10;16.65;;;20.80;30.40;;;;;;7492800;23;20023;-73
2023/03/05 12:56:01;;;;;;;44.10;16.50;;;20.70;30.50;;;;;;7468322;23;20075;-74
2023/03/05 12:59:03;;;;;;;40.85;16.17;;;20.60;30.60;;;;;;7507307;23;20042;-73
2023/03/05 13:02:32;;;;;;;46.55;17.58;;;20.10;31.20;;;;;;7528665;23;20058;-72
2023/03/05 13:05:38;;;;;;;39.80;15.32;;;19.70;31.80;;;;;;7501904;23;20014;-72
2023/03/05 13:08:39;;;;;;;52.70;18.08;;;19.50;31.80;;;;;;7528243;23;20049;-74
2023/03/05 13:11:43;;;;;;;55.90;17.20;;;19.60;31.70;;;;;;7528090;23;20087;-72
2023/03/05 13:14:46;;;;;;;42.47;16.40;;;19.60;31.40;;;;;;7528825;23;20356;-71
2023/03/05 13:17:57;;;;;;;47.20;16.70;;;19.40;31.70;;;;;;7526741;23;20011;-72
2023/03/05 13:21:04;;;;;;;38.53;16.73;;;18.90;32.10;;;;;;7527445;23;20433;-72
2023/03/05 13:24:15;;;;;;;48.75;19.23;;;18.20;32.90;;;;;;7527072;23;20007;-73
2023/03/05 13:27:31;;;;;;;44.67;17.10;;;17.60;33.90;;;;;;7528636;23;20017;-74
2023/03/05 13:30:32;;;;;;;46.05;16.20;;;17.10;34.80;;;;;;7528700;23;20074;-73
2023/03/05 13:33:37;;;;;;;40.38;15.82;;;16.80;35.40;;;;;;7528104;23;20638;-74
2023/03/05 13:36:39;;;;;;;36.67;14.80;;;16.30;36.00;;;;;;7526375;23;20490;-72
2023/03/05 13:39:47;;;;;;;42.72;15.70;;;16.10;36.50;;;;;;7527453;23;20038;-74
2023/03/05 13:42:52;;;;;;;46.25;16.33;;;16.00;36.80;;;;;;7528344;23;20027;-72
2023/03/05 13:45:55;;;;;;;41.00;16.60;;;15.80;37.00;;;;;;7526167;23;20071;-73
2023/03/05 13:48:58;;;;;;;46.13;16.05;;;15.70;37.50;;;;;;7527576;23;20353;-74
2023/03/05 13:51:59;;;;;;;42.80;16.23;;;15.50;37.80;;;;;;7525959;23;20224;-73
2023/03/05 13:55:01;;;;;;;38.80;15.23;;;15.40;38.20;;;;;;7528087;23;20018;-72
2023/03/05 13:58:02;;;;;;;36.13;15.98;;;15.20;38.50;;;;;;7527624;23;20007;-74
2023/03/05 14:01:17;;;;;;;51.13;17.90;;;15.10;38.70;;;;;;7528771;23;20011;-72
2023/03/05 14:04:22;;;;;;;43.45;15.57;;;15.10;38.90;;;;;;7534491;23;20085;-73
2023/03/05 14:07:40;;;;;;;41.78;15.75;;;15.10;39.10;;;;;;7532223;23;20026;-73
2023/03/05 14:10:41;;;;;;;49.63;16.70;;;15.00;39.30;;;;;;7529674;23;20007;-72
2023/03/05 14:13:43;;;;;;;43.80;14.55;;;15.00;39.50;;;;;;7528654;23;20307;-72
2023/03/05 14:16:44;;;;;;;45.28;16.15;;;14.90;39.70;;;;;;7526187;23;20038;-74
2023/03/05 14:19:45;;;;;;;38.55;14.57;;;15.00;39.90;;;;;;7527219;23;20082;-73
2023/03/05 14:22:47;;;;;;;46.10;15.93;;;14.80;40.00;;;;;;7502277;23;20420;-73
2023/03/05 14:25:48;;;;;;;49.03;17.48;;;14.80;40.10;;;;;;7526185;23;20022;-72
2023/03/05 14:28:51;;;;;;;46.20;15.80;;;14.80;40.20;;;;;;7504377;23;20090;-73
2023/03/05 14:31:57;;;;;;;48.70;16.63;;;14.80;40.20;;;;;;7536463;23;20015;-72
2023/03/05 14:35:00;;;;;;;48.53;16.33;;;14.70;40.30;;;;;;7534444;23;20014;-73
2023/03/05 14:38:02;;;;;;;51.42;16.70;;;14.80;41.00;;;;;;7528546;23;20106;-73
2023/03/05 14:41:39;;;;;;;49.92;15.77;;;14.80;40.40;;;;;;7527959;23;20445;-74
2023/03/05 14:44:40;;;;;;;45.08;15.32;;;14.80;40.40;;;;;;7528382;23;20399;-75
2023/03/05 14:47:42;;;;;;;45.38;14.32;;;14.70;40.40;;;;;;7528230;23;20456;-73
2023/03/05 14:50:50;;;;;;;44.95;16.15;;;14.80;40.50;;;;;;7528332;23;20014;-72
2023/03/05 14:53:51;;;;;;;47.47;15.40;;;14.80;40.50;;;;;;7528267;23;20015;-74
2023/03/05 14:56:52;;;;;;;39.75;13.40;;;14.70;40.50;;;;;;7529107;23;20007;-74
2023/03/05 14:59:54;;;;;;;39.80;15.02;;;14.60;40.60;;;;;;7532146;23;20478;-71
2023/03/05 15:02:56;;;;;;;43.50;15.75;;;14.50;40.60;;;;;;7532957;23;20111;-72
2023/03/05 15:05:58;;;;;;;35.95;13.43;;;14.40;40.80;;;;;;7526113;23;20342;-73
2023/03/05 15:09:00;;;;;;;48.15;16.55;;;14.30;41.00;;;;;;7526246;23;20033;-73
2023/03/05 15:12:01;;;;;;;43.55;14.45;;;14.20;41.00;;;;;;7526227;23;20369;-72
2023/03/05 15:15:04;;;;;;;40.35;14.63;;;14.20;41.10;;;;;;7526602;23;20390;-71
2023/03/05 15:18:05;;;;;;;42.95;13.93;;;14.10;41.20;;;;;;7526442;23;20018;-74
2023/03/05 15:21:06;;;;;;;42.10;15.48;;;14.10;41.30;;;;;;7525406;23;20003;-72
2023/03/05 15:24:07;;;;;;;40.35;14.20;;;14.10;41.30;;;;;;7526744;23;20307;-72
2023/03/05 15:27:08;;;;;;;48.22;13.82;;;14.00;41.30;;;;;;7524501;23;20267;-74
2023/03/05 15:30:19;;;;;;;39.67;15.13;;;14.00;41.30;;;;;;7527961;23;20011;-73
2023/03/05 15:33:21;;;;;;;41.33;15.05;;;14.00;41.40;;;;;;7527592;23;20068;-72
2023/03/05 15:36:22;;;;;;;41.15;13.95;;;14.00;41.50;;;;;;7504908;23;20018;-72
2023/03/05 15:39:24;;;;;;;41.10;14.32;;;13.90;41.50;;;;;;7529184;23;20003;-74